Riviere-Au-Renard, Canada
Current Conditions -  °F | °C
As of 11:00 PM on Thursday 18 Dec 2014 (Local Time) from CYGP Reporting Station
Light Snow Light Snow  
Wind Chill: 20°   Ceiling: 1400
Heat Index: 28°   Visibility: 6mi
Dew Point: 25°   Wind: 9mph
Humidity: 86%   Direction: 290°WNW
Pressure: 29.58"   Gusts: 22mph
Location:  48.98°N, 64.38°W
Report Text: CYGP 190400Z 29008G19KT 6SM -SN OVC014 M02/M04 A2958 RMK SC8 SLP019
Loading
Personal Weather Stations






























Interactive Weather Map New forecast layout! Learn more

10-Day Weather Forecast

Advertisements
Track Severe Weather on mobile